sensor_id;sensor_type;location;lat;lon;timestamp;P1;durP1;ratioP1;P2;durP2;ratioP2
71566;SDS011;59403;47.456;19.120;2023-01-15T00:00:04;41.78;;;16.87;;
71566;SDS011;59403;47.456;19.120;2023-01-15T00:02:31;42.45;;;16.55;;
71566;SDS011;59403;47.456;19.120;2023-01-15T00:04:58;45.00;;;17.30;;
71566;SDS011;59403;47.456;19.120;2023-01-15T00:07:27;46.45;;;17.65;;
71566;SDS011;59403;47.456;19.120;2023-01-15T00:09:54;42.77;;;17.63;;
71566;SDS011;59403;47.456;19.120;2023-01-15T00:12:21;42.85;;;17.17;;
71566;SDS011;59403;47.456;19.120;2023-01-15T00:14:48;37.00;;;16.33;;
71566;SDS011;59403;47.456;19.120;2023-01-15T00:17:16;39.85;;;16.02;;
71566;SDS011;59403;47.456;19.120;2023-01-15T00:19:44;41.33;;;16.45;;
71566;SDS011;59403;47.456;19.120;2023-01-15T00:22:12;38.63;;;15.33;;
71566;SDS011;59403;47.456;19.120;2023-01-15T00:24:39;39.90;;;16.75;;
71566;SDS011;59403;47.456;19.120;2023-01-15T00:27:23;37.50;;;15.45;;
71566;SDS011;59403;47.456;19.120;2023-01-15T00:30:07;42.80;;;16.12;;
71566;SDS011;59403;47.456;19.120;2023-01-15T00:32:38;40.08;;;16.77;;
71566;SDS011;59403;47.456;19.120;2023-01-15T00:35:05;41.23;;;16.83;;
71566;SDS011;59403;47.456;19.120;2023-01-15T00:37:33;42.55;;;17.50;;
71566;SDS011;59403;47.456;19.120;2023-01-15T00:39:59;37.45;;;15.90;;
71566;SDS011;59403;47.456;19.120;2023-01-15T00:42:26;49.75;;;18.37;;
71566;SDS011;59403;47.456;19.120;2023-01-15T00:44:53;46.47;;;18.73;;
71566;SDS011;59403;47.456;19.120;2023-01-15T00:47:20;44.00;;;17.23;;
71566;SDS011;59403;47.456;19.120;2023-01-15T00:49:48;42.83;;;17.00;;
71566;SDS011;59403;47.456;19.120;2023-01-15T00:52:15;44.95;;;17.15;;
71566;SDS011;59403;47.456;19.120;2023-01-15T00:54:42;42.30;;;17.45;;
71566;SDS011;59403;47.456;19.120;2023-01-15T00:57:09;40.42;;;17.00;;
71566;SDS011;59403;47.456;19.120;2023-01-15T00:59:36;37.37;;;15.73;;
71566;SDS011;59403;47.456;19.120;2023-01-15T01:02:03;36.25;;;15.40;;
71566;SDS011;59403;47.456;19.120;2023-01-15T01:04:30;39.03;;;15.05;;
71566;SDS011;59403;47.456;19.120;2023-01-15T01:06:58;39.55;;;14.93;;
71566;SDS011;59403;47.456;19.120;2023-01-15T01:09:25;35.85;;;14.27;;
71566;SDS011;59403;47.456;19.120;2023-01-15T01:11:52;34.57;;;15.13;;
71566;SDS011;59403;47.456;19.120;2023-01-15T01:14:18;35.33;;;14.23;;
71566;SDS011;59403;47.456;19.120;2023-01-15T01:16:45;36.28;;;13.60;;
71566;SDS011;59403;47.456;19.120;2023-01-15T01:19:13;37.70;;;14.73;;
71566;SDS011;59403;47.456;19.120;2023-01-15T01:21:42;35.92;;;14.70;;
71566;SDS011;59403;47.456;19.120;2023-01-15T01:24:11;37.73;;;14.93;;
71566;SDS011;59403;47.456;19.120;2023-01-15T01:26:39;34.33;;;13.38;;
71566;SDS011;59403;47.456;19.120;2023-01-15T01:29:09;35.35;;;13.38;;
71566;SDS011;59403;47.456;19.120;2023-01-15T01:31:37;32.00;;;13.48;;
71566;SDS011;59403;47.456;19.120;2023-01-15T01:34:04;29.17;;;13.30;;
71566;SDS011;59403;47.456;19.120;2023-01-15T01:36:32;34.70;;;14.10;;
71566;SDS011;59403;47.456;19.120;2023-01-15T01:39:00;30.75;;;13.65;;
71566;SDS011;59403;47.456;19.120;2023-01-15T01:41:29;30.73;;;13.55;;
71566;SDS011;59403;47.456;19.120;2023-01-15T01:43:57;31.83;;;12.98;;
71566;SDS011;59403;47.456;19.120;2023-01-15T01:46:25;32.58;;;14.18;;
71566;SDS011;59403;47.456;19.120;2023-01-15T01:48:54;31.93;;;13.10;;
71566;SDS011;59403;47.456;19.120;2023-01-15T01:51:25;30.58;;;12.70;;
71566;SDS011;59403;47.456;19.120;2023-01-15T01:53:54;28.87;;;12.35;;
71566;SDS011;59403;47.456;19.120;2023-01-15T01:56:23;29.75;;;13.25;;
71566;SDS011;59403;47.456;19.120;2023-01-15T01:58:52;34.13;;;13.52;;
71566;SDS011;59403;47.456;19.120;2023-01-15T02:04:29;30.77;;;13.00;;
71566;SDS011;59403;47.456;19.120;2023-01-15T02:07:03;28.25;;;12.05;;
71566;SDS011;59403;47.456;19.120;2023-01-15T02:09:32;29.10;;;13.30;;
71566;SDS011;59403;47.456;19.120;2023-01-15T02:12:00;32.20;;;12.88;;
71566;SDS011;59403;47.456;19.120;2023-01-15T02:14:36;30.53;;;12.80;;
71566;SDS011;59403;47.456;19.120;2023-01-15T02:17:09;28.38;;;12.90;;
71566;SDS011;59403;47.456;19.120;2023-01-15T02:19:44;27.02;;;12.73;;
71566;SDS011;59403;47.456;19.120;2023-01-15T02:22:18;29.87;;;12.45;;
71566;SDS011;59403;47.456;19.120;2023-01-15T02:24:56;30.50;;;12.93;;
71566;SDS011;59403;47.456;19.120;2023-01-15T02:27:33;26.43;;;11.23;;
71566;SDS011;59403;47.456;19.120;2023-01-15T02:30:03;29.95;;;12.73;;
71566;SDS011;59403;47.456;19.120;2023-01-15T02:32:36;36.58;;;13.68;;
71566;SDS011;59403;47.456;19.120;2023-01-15T02:35:10;30.73;;;13.18;;
71566;SDS011;59403;47.456;19.120;2023-01-15T02:37:44;30.45;;;13.27;;
71566;SDS011;59403;47.456;19.120;2023-01-15T02:40:19;32.40;;;13.23;;
71566;SDS011;59403;47.456;19.120;2023-01-15T02:42:50;29.23;;;12.75;;
71566;SDS011;59403;47.456;19.120;2023-01-15T02:45:19;27.75;;;11.90;;
71566;SDS011;59403;47.456;19.120;2023-01-15T02:47:51;28.77;;;11.93;;
71566;SDS011;59403;47.456;19.120;2023-01-15T02:50:25;33.03;;;12.70;;
71566;SDS011;59403;47.456;19.120;2023-01-15T02:52:57;28.83;;;12.43;;
71566;SDS011;59403;47.456;19.120;2023-01-15T02:55:30;28.50;;;12.43;;
71566;SDS011;59403;47.456;19.120;2023-01-15T02:58:04;37.50;;;12.37;;
71566;SDS011;59403;47.456;19.120;2023-01-15T03:00:34;31.75;;;12.85;;
71566;SDS011;59403;47.456;19.120;2023-01-15T03:03:06;30.15;;;11.38;;
71566;SDS011;59403;47.456;19.120;2023-01-15T03:05:38;29.87;;;12.90;;
71566;SDS011;59403;47.456;19.120;2023-01-15T03:08:09;37.83;;;12.80;;
71566;SDS011;59403;47.456;19.120;2023-01-15T03:10:38;31.55;;;12.15;;
71566;SDS011;59403;47.456;19.120;2023-01-15T03:13:15;30.35;;;12.85;;
71566;SDS011;59403;47.456;19.120;2023-01-15T03:15:49;30.80;;;12.80;;
71566;SDS011;59403;47.456;19.120;2023-01-15T03:18:45;31.70;;;11.80;;
71566;SDS011;59403;47.456;19.120;2023-01-15T03:21:16;30.00;;;12.65;;
71566;SDS011;59403;47.456;19.120;2023-01-15T03:23:48;32.95;;;12.75;;
71566;SDS011;59403;47.456;19.120;2023-01-15T03:26:19;30.83;;;13.40;;
71566;SDS011;59403;47.456;19.120;2023-01-15T03:28:47;43.38;;;12.98;;
71566;SDS011;59403;47.456;19.120;2023-01-15T03:31:16;34.30;;;13.33;;
71566;SDS011;59403;47.456;19.120;2023-01-15T03:33:43;29.52;;;12.77;;
71566;SDS011;59403;47.456;19.120;2023-01-15T03:36:10;28.85;;;13.10;;
71566;SDS011;59403;47.456;19.120;2023-01-15T03:38:37;37.28;;;12.90;;
71566;SDS011;59403;47.456;19.120;2023-01-15T03:41:09;31.87;;;12.98;;
71566;SDS011;59403;47.456;19.120;2023-01-15T03:43:46;42.13;;;11.83;;
71566;SDS011;59403;47.456;19.120;2023-01-15T03:46:27;33.03;;;12.88;;
71566;SDS011;59403;47.456;19.120;2023-01-15T03:49:05;32.53;;;14.00;;
71566;SDS011;59403;47.456;19.120;2023-01-15T03:51:43;30.85;;;12.88;;
71566;SDS011;59403;47.456;19.120;2023-01-15T03:54:26;31.33;;;12.80;;
71566;SDS011;59403;47.456;19.120;2023-01-15T03:57:00;31.37;;;11.53;;
71566;SDS011;59403;47.456;19.120;2023-01-15T03:59:35;30.90;;;13.05;;
71566;SDS011;59403;47.456;19.120;2023-01-15T04:02:07;28.83;;;11.80;;
71566;SDS011;59403;47.456;19.120;2023-01-15T04:04:37;29.27;;;12.55;;
71566;SDS011;59403;47.456;19.120;2023-01-15T04:07:04;31.02;;;13.02;;
71566;SDS011;59403;47.456;19.120;2023-01-15T04:09:31;32.63;;;12.33;;
71566;SDS011;59403;47.456;19.120;2023-01-15T04:12:03;29.87;;;12.27;;
71566;SDS011;59403;47.456;19.120;2023-01-15T04:14:30;33.03;;;12.70;;
71566;SDS011;59403;47.456;19.120;2023-01-15T04:16:59;34.10;;;13.05;;
71566;SDS011;59403;47.456;19.120;2023-01-15T04:19:26;30.70;;;12.57;;
71566;SDS011;59403;47.456;19.120;2023-01-15T04:21:53;27.37;;;12.33;;
71566;SDS011;59403;47.456;19.120;2023-01-15T04:24:19;31.60;;;13.13;;
71566;SDS011;59403;47.456;19.120;2023-01-15T04:26:46;30.70;;;12.70;;
71566;SDS011;59403;47.456;19.120;2023-01-15T04:29:13;32.28;;;12.90;;
71566;SDS011;59403;47.456;19.120;2023-01-15T04:31:40;29.75;;;12.90;;
71566;SDS011;59403;47.456;19.120;2023-01-15T04:34:08;29.07;;;12.33;;
71566;SDS011;59403;47.456;19.120;2023-01-15T04:36:35;30.37;;;12.65;;
71566;SDS011;59403;47.456;19.120;2023-01-15T04:39:02;28.25;;;12.25;;
71566;SDS011;59403;47.456;19.120;2023-01-15T04:41:29;28.62;;;11.98;;
71566;SDS011;59403;47.456;19.120;2023-01-15T04:44:14;30.52;;;11.35;;
71566;SDS011;59403;47.456;19.120;2023-01-15T04:46:41;26.13;;;11.07;;
71566;SDS011;59403;47.456;19.120;2023-01-15T04:49:11;23.65;;;10.57;;
71566;SDS011;59403;47.456;19.120;2023-01-15T04:51:39;26.73;;;11.50;;
71566;SDS011;59403;47.456;19.120;2023-01-15T04:54:07;25.30;;;10.93;;
71566;SDS011;59403;47.456;19.120;2023-01-15T04:56:36;25.85;;;11.05;;
71566;SDS011;59403;47.456;19.120;2023-01-15T04:59:04;27.77;;;12.17;;
71566;SDS011;59403;47.456;19.120;2023-01-15T05:01:31;25.90;;;11.18;;
71566;SDS011;59403;47.456;19.120;2023-01-15T05:03:58;26.42;;;11.32;;
71566;SDS011;59403;47.456;19.120;2023-01-15T05:06:27;23.92;;;10.77;;
71566;SDS011;59403;47.456;19.120;2023-01-15T05:08:55;25.98;;;11.52;;
71566;SDS011;59403;47.456;19.120;2023-01-15T05:11:22;23.03;;;10.37;;
71566;SDS011;59403;47.456;19.120;2023-01-15T05:13:49;24.67;;;11.05;;
71566;SDS011;59403;47.456;19.120;2023-01-15T05:16:16;23.00;;;11.25;;
71566;SDS011;59403;47.456;19.120;2023-01-15T05:18:45;25.08;;;10.75;;
71566;SDS011;59403;47.456;19.120;2023-01-15T05:21:13;23.15;;;9.93;;
71566;SDS011;59403;47.456;19.120;2023-01-15T05:23:42;24.17;;;10.50;;
71566;SDS011;59403;47.456;19.120;2023-01-15T05:26:09;20.20;;;9.50;;
71566;SDS011;59403;47.456;19.120;2023-01-15T05:28:36;26.00;;;10.48;;
71566;SDS011;59403;47.456;19.120;2023-01-15T05:31:07;25.40;;;11.00;;
71566;SDS011;59403;47.456;19.120;2023-01-15T05:33:34;20.88;;;9.82;;
71566;SDS011;59403;47.456;19.120;2023-01-15T05:36:02;23.77;;;10.37;;
71566;SDS011;59403;47.456;19.120;2023-01-15T05:38:29;24.40;;;10.70;;
71566;SDS011;59403;47.456;19.120;2023-01-15T05:40:58;27.08;;;11.12;;
71566;SDS011;59403;47.456;19.120;2023-01-15T05:43:25;24.45;;;10.00;;
71566;SDS011;59403;47.456;19.120;2023-01-15T05:45:52;19.87;;;9.52;;
71566;SDS011;59403;47.456;19.120;2023-01-15T05:48:18;22.20;;;9.97;;
71566;SDS011;59403;47.456;19.120;2023-01-15T05:50:45;27.25;;;10.38;;
71566;SDS011;59403;47.456;19.120;2023-01-15T05:53:12;23.35;;;10.13;;
71566;SDS011;59403;47.456;19.120;2023-01-15T05:55:39;26.00;;;10.13;;
71566;SDS011;59403;47.456;19.120;2023-01-15T05:58:07;25.58;;;10.50;;
71566;SDS011;59403;47.456;19.120;2023-01-15T06:00:34;27.47;;;11.27;;
71566;SDS011;59403;47.456;19.120;2023-01-15T06:03:01;23.48;;;10.43;;
71566;SDS011;59403;47.456;19.120;2023-01-15T06:05:27;24.55;;;10.23;;
71566;SDS011;59403;47.456;19.120;2023-01-15T06:07:54;26.50;;;10.55;;
71566;SDS011;59403;47.456;19.120;2023-01-15T06:10:21;25.20;;;10.85;;
71566;SDS011;59403;47.456;19.120;2023-01-15T06:12:48;25.17;;;11.17;;
71566;SDS011;59403;47.456;19.120;2023-01-15T06:15:16;26.25;;;9.95;;
71566;SDS011;59403;47.456;19.120;2023-01-15T06:17:43;25.75;;;10.25;;
71566;SDS011;59403;47.456;19.120;2023-01-15T06:20:10;27.27;;;10.45;;
71566;SDS011;59403;47.456;19.120;2023-01-15T06:22:37;27.10;;;10.18;;
71566;SDS011;59403;47.456;19.120;2023-01-15T06:25:04;23.40;;;9.53;;
71566;SDS011;59403;47.456;19.120;2023-01-15T06:27:31;21.83;;;10.07;;
71566;SDS011;59403;47.456;19.120;2023-01-15T06:29:58;25.70;;;10.55;;
71566;SDS011;59403;47.456;19.120;2023-01-15T06:32:26;24.80;;;10.45;;
71566;SDS011;59403;47.456;19.120;2023-01-15T06:34:53;24.52;;;10.20;;
71566;SDS011;59403;47.456;19.120;2023-01-15T06:37:20;26.20;;;10.93;;
71566;SDS011;59403;47.456;19.120;2023-01-15T06:39:47;32.40;;;12.57;;
71566;SDS011;59403;47.456;19.120;2023-01-15T06:42:14;27.50;;;10.57;;
71566;SDS011;59403;47.456;19.120;2023-01-15T06:44:58;24.85;;;10.10;;
71566;SDS011;59403;47.456;19.120;2023-01-15T06:47:47;28.20;;;11.57;;
71566;SDS011;59403;47.456;19.120;2023-01-15T06:50:14;26.90;;;10.77;;
71566;SDS011;59403;47.456;19.120;2023-01-15T06:52:41;26.20;;;11.35;;
71566;SDS011;59403;47.456;19.120;2023-01-15T06:55:08;27.77;;;11.70;;
71566;SDS011;59403;47.456;19.120;2023-01-15T06:57:36;26.08;;;10.60;;
71566;SDS011;59403;47.456;19.120;2023-01-15T07:00:04;29.65;;;11.02;;
71566;SDS011;59403;47.456;19.120;2023-01-15T07:02:32;40.90;;;17.47;;
71566;SDS011;59403;47.456;19.120;2023-01-15T07:05:00;25.77;;;12.20;;
71566;SDS011;59403;47.456;19.120;2023-01-15T07:07:27;26.30;;;11.40;;
71566;SDS011;59403;47.456;19.120;2023-01-15T07:09:54;27.98;;;12.30;;
71566;SDS011;59403;47.456;19.120;2023-01-15T07:12:21;28.08;;;11.25;;
71566;SDS011;59403;47.456;19.120;2023-01-15T07:14:48;29.63;;;11.97;;
71566;SDS011;59403;47.456;19.120;2023-01-15T07:17:15;28.33;;;12.48;;
71566;SDS011;59403;47.456;19.120;2023-01-15T07:19:42;30.08;;;12.65;;
71566;SDS011;59403;47.456;19.120;2023-01-15T07:22:11;30.65;;;12.07;;
71566;SDS011;59403;47.456;19.120;2023-01-15T07:24:38;24.45;;;10.45;;
71566;SDS011;59403;47.456;19.120;2023-01-15T07:27:05;31.43;;;12.77;;
71566;SDS011;59403;47.456;19.120;2023-01-15T07:29:32;29.27;;;13.07;;
71566;SDS011;59403;47.456;19.120;2023-01-15T07:31:58;27.73;;;12.00;;
71566;SDS011;59403;47.456;19.120;2023-01-15T07:34:25;31.10;;;13.40;;
71566;SDS011;59403;47.456;19.120;2023-01-15T07:36:52;31.08;;;13.23;;
71566;SDS011;59403;47.456;19.120;2023-01-15T07:39:20;28.60;;;11.80;;
71566;SDS011;59403;47.456;19.120;2023-01-15T07:41:47;33.13;;;14.13;;
71566;SDS011;59403;47.456;19.120;2023-01-15T07:44:32;27.50;;;13.10;;
71566;SDS011;59403;47.456;19.120;2023-01-15T07:47:17;29.12;;;13.25;;
71566;SDS011;59403;47.456;19.120;2023-01-15T07:50:03;30.12;;;12.63;;
71566;SDS011;59403;47.456;19.120;2023-01-15T07:52:32;29.43;;;12.50;;
71566;SDS011;59403;47.456;19.120;2023-01-15T07:55:00;31.15;;;12.88;;
71566;SDS011;59403;47.456;19.120;2023-01-15T07:57:28;30.02;;;12.23;;
71566;SDS011;59403;47.456;19.120;2023-01-15T07:59:55;33.50;;;12.90;;
71566;SDS011;59403;47.456;19.120;2023-01-15T08:02:22;35.45;;;14.45;;
71566;SDS011;59403;47.456;19.120;2023-01-15T08:04:49;36.17;;;15.17;;
71566;SDS011;59403;47.456;19.120;2023-01-15T08:07:16;31.83;;;13.88;;
71566;SDS011;59403;47.456;19.120;2023-01-15T08:09:42;28.58;;;13.60;;
71566;SDS011;59403;47.456;19.120;2023-01-15T08:12:14;33.28;;;14.05;;
71566;SDS011;59403;47.456;19.120;2023-01-15T08:14:58;33.72;;;14.65;;
71566;SDS011;59403;47.456;19.120;2023-01-15T08:17:41;34.50;;;14.33;;
71566;SDS011;59403;47.456;19.120;2023-01-15T08:20:20;29.77;;;13.50;;
71566;SDS011;59403;47.456;19.120;2023-01-15T08:22:48;27.58;;;12.95;;
71566;SDS011;59403;47.456;19.120;2023-01-15T08:25:16;32.13;;;13.95;;
71566;SDS011;59403;47.456;19.120;2023-01-15T08:27:46;28.60;;;14.15;;
71566;SDS011;59403;47.456;19.120;2023-01-15T08:30:15;35.33;;;15.13;;
71566;SDS011;59403;47.456;19.120;2023-01-15T08:32:42;33.83;;;14.45;;
71566;SDS011;59403;47.456;19.120;2023-01-15T08:35:09;37.08;;;15.45;;
71566;SDS011;59403;47.456;19.120;2023-01-15T08:37:38;33.50;;;14.30;;
71566;SDS011;59403;47.456;19.120;2023-01-15T08:40:06;32.13;;;13.57;;
71566;SDS011;59403;47.456;19.120;2023-01-15T08:42:36;35.57;;;14.50;;
71566;SDS011;59403;47.456;19.120;2023-01-15T08:45:04;35.55;;;15.23;;
71566;SDS011;59403;47.456;19.120;2023-01-15T08:47:32;35.72;;;16.05;;
71566;SDS011;59403;47.456;19.120;2023-01-15T08:49:59;35.17;;;15.13;;
71566;SDS011;59403;47.456;19.120;2023-01-15T08:52:25;34.17;;;14.70;;
71566;SDS011;59403;47.456;19.120;2023-01-15T08:54:52;32.97;;;15.90;;
71566;SDS011;59403;47.456;19.120;2023-01-15T08:57:19;36.10;;;16.02;;
71566;SDS011;59403;47.456;19.120;2023-01-15T08:59:46;36.83;;;15.60;;
71566;SDS011;59403;47.456;19.120;2023-01-15T09:02:14;29.35;;;13.35;;
71566;SDS011;59403;47.456;19.120;2023-01-15T09:04:41;33.05;;;15.05;;
71566;SDS011;59403;47.456;19.120;2023-01-15T09:07:09;31.47;;;14.43;;
71566;SDS011;59403;47.456;19.120;2023-01-15T09:09:36;28.52;;;14.05;;
71566;SDS011;59403;47.456;19.120;2023-01-15T09:12:03;29.87;;;13.62;;
71566;SDS011;59403;47.456;19.120;2023-01-15T09:14:30;27.90;;;13.30;;
71566;SDS011;59403;47.456;19.120;2023-01-15T09:16:57;27.37;;;13.88;;
71566;SDS011;59403;47.456;19.120;2023-01-15T09:19:25;29.73;;;15.17;;
71566;SDS011;59403;47.456;19.120;2023-01-15T09:21:52;28.35;;;14.43;;
71566;SDS011;59403;47.456;19.120;2023-01-15T09:24:19;28.67;;;14.15;;
71566;SDS011;59403;47.456;19.120;2023-01-15T09:26:46;25.55;;;11.90;;
71566;SDS011;59403;47.456;19.120;2023-01-15T09:29:17;25.92;;;12.52;;
71566;SDS011;59403;47.456;19.120;2023-01-15T09:31:44;25.63;;;12.07;;
71566;SDS011;59403;47.456;19.120;2023-01-15T09:34:10;26.45;;;12.68;;
71566;SDS011;59403;47.456;19.120;2023-01-15T09:36:39;23.38;;;11.57;;
71566;SDS011;59403;47.456;19.120;2023-01-15T09:39:05;23.23;;;11.48;;
71566;SDS011;59403;47.456;19.120;2023-01-15T09:41:35;23.62;;;11.52;;
71566;SDS011;59403;47.456;19.120;2023-01-15T09:47:22;21.30;;;11.57;;
71566;SDS011;59403;47.456;19.120;2023-01-15T09:50:01;22.20;;;10.43;;
71566;SDS011;59403;47.456;19.120;2023-01-15T09:52:54;22.50;;;10.95;;
71566;SDS011;59403;47.456;19.120;2023-01-15T09:55:41;20.67;;;10.05;;
71566;SDS011;59403;47.456;19.120;2023-01-15T09:58:11;23.27;;;10.47;;
71566;SDS011;59403;47.456;19.120;2023-01-15T10:00:42;18.55;;;10.05;;
71566;SDS011;59403;47.456;19.120;2023-01-15T10:03:13;20.90;;;10.20;;
71566;SDS011;59403;47.456;19.120;2023-01-15T10:05:52;21.00;;;10.25;;
71566;SDS011;59403;47.456;19.120;2023-01-15T10:08:25;21.95;;;11.25;;
71566;SDS011;59403;47.456;19.120;2023-01-15T10:10:58;18.97;;;9.83;;
71566;SDS011;59403;47.456;19.120;2023-01-15T10:13:29;18.50;;;8.95;;
71566;SDS011;59403;47.456;19.120;2023-01-15T10:16:03;18.87;;;9.43;;
71566;SDS011;59403;47.456;19.120;2023-01-15T10:18:30;19.52;;;9.68;;
71566;SDS011;59403;47.456;19.120;2023-01-15T10:21:00;18.90;;;9.23;;
71566;SDS011;59403;47.456;19.120;2023-01-15T10:23:40;20.93;;;9.70;;
71566;SDS011;59403;47.456;19.120;2023-01-15T10:26:14;18.02;;;9.25;;
71566;SDS011;59403;47.456;19.120;2023-01-15T10:28:58;17.40;;;9.27;;
71566;SDS011;59403;47.456;19.120;2023-01-15T10:34:31;17.73;;;8.75;;
71566;SDS011;59403;47.456;19.120;2023-01-15T10:37:16;15.03;;;8.60;;
71566;SDS011;59403;47.456;19.120;2023-01-15T10:39:51;17.55;;;7.35;;
71566;SDS011;59403;47.456;19.120;2023-01-15T10:42:31;14.90;;;8.13;;
71566;SDS011;59403;47.456;19.120;2023-01-15T10:45:10;18.25;;;8.95;;
71566;SDS011;59403;47.456;19.120;2023-01-15T10:47:41;19.10;;;9.40;;
71566;SDS011;59403;47.456;19.120;2023-01-15T10:50:14;23.23;;;11.10;;
71566;SDS011;59403;47.456;19.120;2023-01-15T10:52:44;18.00;;;8.05;;
71566;SDS011;59403;47.456;19.120;2023-01-15T10:55:17;17.60;;;8.85;;
71566;SDS011;59403;47.456;19.120;2023-01-15T10:57:48;16.52;;;8.65;;
71566;SDS011;59403;47.456;19.120;2023-01-15T11:00:23;17.35;;;8.57;;
71566;SDS011;59403;47.456;19.120;2023-01-15T11:02:52;14.87;;;7.67;;
71566;SDS011;59403;47.456;19.120;2023-01-15T11:05:27;19.83;;;8.68;;
71566;SDS011;59403;47.456;19.120;2023-01-15T11:07:55;17.55;;;8.65;;
71566;SDS011;59403;47.456;19.120;2023-01-15T11:10:23;15.23;;;7.93;;
71566;SDS011;59403;47.456;19.120;2023-01-15T11:12:51;16.05;;;8.68;;
71566;SDS011;59403;47.456;19.120;2023-01-15T11:15:37;20.17;;;9.20;;
71566;SDS011;59403;47.456;19.120;2023-01-15T11:18:23;15.10;;;8.50;;
71566;SDS011;59403;47.456;19.120;2023-01-15T11:21:11;15.05;;;8.13;;
71566;SDS011;59403;47.456;19.120;2023-01-15T11:23:40;14.55;;;7.80;;
71566;SDS011;59403;47.456;19.120;2023-01-15T11:26:09;18.73;;;9.32;;
71566;SDS011;59403;47.456;19.120;2023-01-15T11:28:43;16.93;;;9.00;;
71566;SDS011;59403;47.456;19.120;2023-01-15T11:31:12;18.50;;;9.20;;
71566;SDS011;59403;47.456;19.120;2023-01-15T11:33:39;17.48;;;9.55;;
71566;SDS011;59403;47.456;19.120;2023-01-15T11:36:18;17.85;;;9.15;;
71566;SDS011;59403;47.456;19.120;2023-01-15T11:38:47;17.67;;;9.50;;
71566;SDS011;59403;47.456;19.120;2023-01-15T11:41:18;17.53;;;9.57;;
71566;SDS011;59403;47.456;19.120;2023-01-15T11:43:53;19.17;;;10.35;;
71566;SDS011;59403;47.456;19.120;2023-01-15T11:46:38;18.33;;;9.80;;
71566;SDS011;59403;47.456;19.120;2023-01-15T11:49:38;22.17;;;10.25;;
71566;SDS011;59403;47.456;19.120;2023-01-15T11:52:22;19.95;;;10.32;;
71566;SDS011;59403;47.456;19.120;2023-01-15T11:54:51;22.70;;;9.87;;
71566;SDS011;59403;47.456;19.120;2023-01-15T11:57:26;19.40;;;9.93;;
71566;SDS011;59403;47.456;19.120;2023-01-15T11:59:55;19.37;;;9.95;;
71566;SDS011;59403;47.456;19.120;2023-01-15T12:02:28;20.45;;;10.30;;
71566;SDS011;59403;47.456;19.120;2023-01-15T12:05:00;20.40;;;10.15;;
71566;SDS011;59403;47.456;19.120;2023-01-15T12:07:28;19.80;;;10.40;;
71566;SDS011;59403;47.456;19.120;2023-01-15T12:10:01;20.80;;;11.00;;
71566;SDS011;59403;47.456;19.120;2023-01-15T12:12:43;24.10;;;11.60;;
71566;SDS011;59403;47.456;19.120;2023-01-15T12:15:30;28.40;;;12.90;;
71566;SDS011;59403;47.456;19.120;2023-01-15T12:18:15;22.80;;;11.00;;
71566;SDS011;59403;47.456;19.120;2023-01-15T12:21:01;25.07;;;11.80;;
71566;SDS011;59403;47.456;19.120;2023-01-15T12:23:36;23.02;;;11.12;;
71566;SDS011;59403;47.456;19.120;2023-01-15T12:26:21;21.98;;;10.93;;
71566;SDS011;59403;47.456;19.120;2023-01-15T12:28:55;23.92;;;11.77;;
71566;SDS011;59403;47.456;19.120;2023-01-15T12:31:29;20.33;;;10.88;;
71566;SDS011;59403;47.456;19.120;2023-01-15T12:33:59;18.97;;;9.40;;
71566;SDS011;59403;47.456;19.120;2023-01-15T12:36:35;23.45;;;10.95;;
71566;SDS011;59403;47.456;19.120;2023-01-15T12:39:06;21.62;;;11.12;;
71566;SDS011;59403;47.456;19.120;2023-01-15T12:41:43;20.00;;;11.07;;
71566;SDS011;59403;47.456;19.120;2023-01-15T12:44:32;22.17;;;11.00;;
71566;SDS011;59403;47.456;19.120;2023-01-15T12:47:23;23.10;;;11.40;;
71566;SDS011;59403;47.456;19.120;2023-01-15T12:49:55;23.45;;;11.95;;
71566;SDS011;59403;47.456;19.120;2023-01-15T12:52:32;23.02;;;11.60;;
71566;SDS011;59403;47.456;19.120;2023-01-15T12:55:08;22.60;;;10.93;;
71566;SDS011;59403;47.456;19.120;2023-01-15T12:57:42;20.50;;;10.57;;
71566;SDS011;59403;47.456;19.120;2023-01-15T13:00:14;22.07;;;10.93;;
71566;SDS011;59403;47.456;19.120;2023-01-15T13:02:52;22.35;;;11.05;;
71566;SDS011;59403;47.456;19.120;2023-01-15T13:05:26;19.08;;;10.50;;
71566;SDS011;59403;47.456;19.120;2023-01-15T13:07:57;19.65;;;10.50;;
71566;SDS011;59403;47.456;19.120;2023-01-15T13:10:34;22.37;;;10.88;;
71566;SDS011;59403;47.456;19.120;2023-01-15T13:13:10;20.73;;;11.03;;
71566;SDS011;59403;47.456;19.120;2023-01-15T13:15:45;22.55;;;10.82;;
71566;SDS011;59403;47.456;19.120;2023-01-15T13:18:22;22.17;;;10.70;;
71566;SDS011;59403;47.456;19.120;2023-01-15T13:20:56;22.25;;;10.52;;
71566;SDS011;59403;47.456;19.120;2023-01-15T13:23:34;23.77;;;10.88;;
71566;SDS011;59403;47.456;19.120;2023-01-15T13:26:19;19.53;;;10.20;;
71566;SDS011;59403;47.456;19.120;2023-01-15T13:28:56;19.00;;;10.55;;
71566;SDS011;59403;47.456;19.120;2023-01-15T13:31:41;21.33;;;10.93;;
71566;SDS011;59403;47.456;19.120;2023-01-15T13:34:26;21.92;;;10.23;;
71566;SDS011;59403;47.456;19.120;2023-01-15T13:37:01;20.12;;;10.07;;
71566;SDS011;59403;47.456;19.120;2023-01-15T13:39:35;21.60;;;11.03;;
71566;SDS011;59403;47.456;19.120;2023-01-15T13:42:10;23.38;;;10.30;;
71566;SDS011;59403;47.456;19.120;2023-01-15T13:45:01;21.65;;;10.95;;
71566;SDS011;59403;47.456;19.120;2023-01-15T13:47:30;22.58;;;10.77;;
71566;SDS011;59403;47.456;19.120;2023-01-15T13:49:59;20.60;;;9.75;;
71566;SDS011;59403;47.456;19.120;2023-01-15T13:52:30;20.10;;;9.70;;
71566;SDS011;59403;47.456;19.120;2023-01-15T13:54:59;21.62;;;10.05;;
71566;SDS011;59403;47.456;19.120;2023-01-15T13:57:34;19.77;;;9.45;;
71566;SDS011;59403;47.456;19.120;2023-01-15T14:00:06;18.67;;;10.18;;
71566;SDS011;59403;47.456;19.120;2023-01-15T14:02:36;19.77;;;8.85;;
71566;SDS011;59403;47.456;19.120;2023-01-15T14:05:12;19.47;;;9.53;;
71566;SDS011;59403;47.456;19.120;2023-01-15T14:07:51;17.05;;;9.50;;
71566;SDS011;59403;47.456;19.120;2023-01-15T14:10:21;19.05;;;9.45;;
71566;SDS011;59403;47.456;19.120;2023-01-15T14:12:53;18.23;;;9.13;;
71566;SDS011;59403;47.456;19.120;2023-01-15T14:15:36;17.98;;;8.32;;
71566;SDS011;59403;47.456;19.120;2023-01-15T14:18:18;17.53;;;8.73;;
71566;SDS011;59403;47.456;19.120;2023-01-15T14:20:58;17.27;;;9.10;;
71566;SDS011;59403;47.456;19.120;2023-01-15T14:23:45;18.20;;;9.13;;
71566;SDS011;59403;47.456;19.120;2023-01-15T14:26:26;18.85;;;9.45;;
71566;SDS011;59403;47.456;19.120;2023-01-15T14:29:03;17.77;;;8.85;;
71566;SDS011;59403;47.456;19.120;2023-01-15T14:31:52;18.73;;;8.80;;
71566;SDS011;59403;47.456;19.120;2023-01-15T14:34:30;18.58;;;9.10;;
71566;SDS011;59403;47.456;19.120;2023-01-15T14:37:00;20.35;;;9.50;;
71566;SDS011;59403;47.456;19.120;2023-01-15T14:39:31;23.48;;;10.75;;
71566;SDS011;59403;47.456;19.120;2023-01-15T14:42:05;21.83;;;10.20;;
71566;SDS011;59403;47.456;19.120;2023-01-15T14:44:59;23.10;;;11.53;;